createdAt,value
2023-05-18T00:02:16.459Z,98474.00
2023-05-18T00:04:43.362Z,98490.00
2023-05-18T00:07:09.947Z,98482.00
2023-05-18T00:09:36.847Z,98488.00
2023-05-18T00:12:04.828Z,98480.00
2023-05-18T00:14:31.349Z,98488.00
2023-05-18T00:17:00.856Z,98485.00
2023-05-18T00:19:27.972Z,98487.00
2023-05-18T00:21:55.269Z,98499.00
2023-05-18T00:24:22.003Z,98485.00
2023-05-18T00:26:48.546Z,98482.00
2023-05-18T00:29:15.375Z,98491.00
2023-05-18T00:31:41.772Z,98494.00
2023-05-18T00:34:09.269Z,98490.00
2023-05-18T00:36:37.867Z,98488.00
2023-05-18T00:39:05.906Z,98499.00
2023-05-18T00:41:32.619Z,98487.00
2023-05-18T00:44:00.072Z,98493.00
2023-05-18T00:46:27.915Z,98499.00
2023-05-18T00:48:56.647Z,98478.00
2023-05-18T00:51:24.092Z,98488.00
2023-05-18T00:53:54.156Z,98487.00
2023-05-18T00:56:25.474Z,98491.00
2023-05-18T00:58:56.386Z,98487.00
2023-05-18T01:01:36.247Z,98485.00
2023-05-18T01:04:03.693Z,98494.00
2023-05-18T01:06:34.872Z,98500.00
2023-05-18T01:09:06.011Z,98500.00
2023-05-18T01:12:03.808Z,98497.00
2023-05-18T01:14:53.431Z,98491.00
2023-05-18T01:17:46.597Z,98491.00
2023-05-18T01:20:45.071Z,98480.00
2023-05-18T01:23:36.221Z,98492.00
2023-05-18T01:26:16.377Z,98491.00
2023-05-18T01:28:46.148Z,98484.00
2023-05-18T01:31:15.500Z,98500.00
2023-05-18T01:33:42.306Z,98496.00
2023-05-18T01:36:09.932Z,98495.00
2023-05-18T01:38:38.242Z,98483.00
2023-05-18T01:41:27.773Z,98498.00
2023-05-18T01:44:16.537Z,98494.00
2023-05-18T01:46:58.344Z,98488.00
2023-05-18T01:49:34.964Z,98484.00
2023-05-18T01:52:10.855Z,98499.00
2023-05-18T01:54:43.935Z,98489.00
2023-05-18T01:57:10.907Z,98484.00
2023-05-18T01:59:38.880Z,98497.00
2023-05-18T02:02:05.676Z,98482.00
2023-05-18T02:04:31.906Z,98481.00
2023-05-18T02:06:58.391Z,98492.00
2023-05-18T02:09:24.730Z,98485.00
2023-05-18T02:11:50.921Z,98468.00
2023-05-18T02:14:17.200Z,98477.00
2023-05-18T02:16:46.507Z,98480.00
2023-05-18T02:19:16.843Z,98477.00
2023-05-18T02:21:43.051Z,98466.00
2023-05-18T02:24:09.387Z,98482.00
2023-05-18T02:26:37.051Z,98480.00
2023-05-18T02:29:10.955Z,98484.00
2023-05-18T02:31:37.931Z,98489.00
2023-05-18T02:34:04.521Z,98480.00
2023-05-18T02:36:36.344Z,98491.00
2023-05-18T02:39:04.156Z,98477.00
2023-05-18T02:41:30.386Z,98471.00
2023-05-18T02:43:56.639Z,98482.00
2023-05-18T02:46:22.928Z,98482.00
2023-05-18T02:48:49.243Z,98490.00
2023-05-18T02:51:15.523Z,98484.00
2023-05-18T02:53:43.437Z,98485.00
2023-05-18T02:56:12.871Z,98486.00
2023-05-18T02:58:56.816Z,98476.00
2023-05-18T03:01:43.502Z,98489.00
2023-05-18T03:04:10.434Z,98487.00
2023-05-18T03:06:45.805Z,98479.00
2023-05-18T03:09:12.186Z,98480.00
2023-05-18T03:11:41.574Z,98490.00
2023-05-18T03:14:08.911Z,98487.00
2023-05-18T03:16:38.015Z,98488.00
2023-05-18T03:19:07.820Z,98485.00
2023-05-18T03:21:38.039Z,98485.00
2023-05-18T03:24:05.245Z,98490.00
2023-05-18T03:26:34.506Z,98488.00
2023-05-18T03:29:01.352Z,98492.00
2023-05-18T03:31:27.787Z,98486.00
2023-05-18T03:33:56.452Z,98491.00
2023-05-18T03:36:25.414Z,98483.00
2023-05-18T03:38:52.323Z,98488.00
2023-05-18T03:41:18.612Z,98495.00
2023-05-18T03:43:44.800Z,98495.00
2023-05-18T03:46:11.740Z,98488.00
2023-05-18T03:48:37.993Z,98505.00
2023-05-18T03:51:05.281Z,98492.00
2023-05-18T03:53:33.079Z,98488.00
2023-05-18T03:55:59.309Z,98494.00
2023-05-18T03:58:26.671Z,98498.00
2023-05-18T04:00:53.335Z,98497.00
2023-05-18T04:03:21.012Z,98501.00
2023-05-18T04:05:48.259Z,98504.00
2023-05-18T04:08:16.624Z,98497.00
2023-05-18T04:10:44.410Z,98502.00
2023-05-18T04:13:11.962Z,98488.00
2023-05-18T04:15:38.387Z,98506.00
2023-05-18T04:18:04.747Z,98504.00
2023-05-18T04:20:31.070Z,98504.00
2023-05-18T04:22:57.403Z,98505.00
2023-05-18T04:25:27.224Z,98502.00
2023-05-18T04:27:55.334Z,98503.00
2023-05-18T04:30:25.841Z,98509.00
2023-05-18T04:32:53.736Z,98496.00
2023-05-18T04:35:20.550Z,98493.00
2023-05-18T04:37:46.772Z,98495.00
2023-05-18T04:40:17.151Z,98504.00
2023-05-18T04:42:46.707Z,98500.00
2023-05-18T04:45:18.579Z,98513.00
2023-05-18T04:47:52.495Z,98498.00
2023-05-18T04:50:20.227Z,98504.00
2023-05-18T04:52:49.307Z,98496.00
2023-05-18T04:55:25.228Z,98510.00
2023-05-18T04:57:55.795Z,98509.00
2023-05-18T05:00:28.325Z,98501.00
2023-05-18T05:02:56.257Z,98501.00
2023-05-18T05:05:24.411Z,98499.00
2023-05-18T05:07:52.401Z,98523.00
2023-05-18T05:10:20.117Z,98509.00
2023-05-18T05:12:49.241Z,98505.00
2023-05-18T05:15:16.368Z,98510.00
2023-05-18T05:17:42.842Z,98498.00
2023-05-18T05:20:09.634Z,98497.00
2023-05-18T05:22:36.278Z,98503.00
2023-05-18T05:25:06.208Z,98512.00
2023-05-18T05:27:33.214Z,98509.00
2023-05-18T05:29:59.920Z,98514.00
2023-05-18T05:32:26.275Z,98466.00
2023-05-18T05:34:52.609Z,98477.00
2023-05-18T05:37:20.558Z,98509.00
2023-05-18T05:39:48.132Z,98509.00
2023-05-18T05:42:16.726Z,98515.00
2023-05-18T05:44:42.957Z,98491.00
2023-05-18T05:47:09.250Z,98502.00
2023-05-18T05:49:35.620Z,98514.00
2023-05-18T05:52:03.589Z,98504.00
2023-05-18T05:54:30.597Z,98516.00
2023-05-18T05:56:56.885Z,98507.00
2023-05-18T05:59:23.300Z,98506.00
2023-05-18T06:01:50.854Z,98498.00
2023-05-18T06:04:17.495Z,98511.00
2023-05-18T06:06:44.012Z,98508.00
2023-05-18T06:09:11.510Z,98520.00
2023-05-18T06:11:37.740Z,98522.00
2023-05-18T06:14:04.690Z,98509.00
2023-05-18T06:16:31.050Z,98512.00
2023-05-18T06:18:58.173Z,98524.00
2023-05-18T06:21:24.521Z,98516.00
2023-05-18T06:23:50.718Z,98515.00
2023-05-18T06:26:27.704Z,98506.00
2023-05-18T06:29:08.140Z,98515.00
2023-05-18T06:31:54.652Z,98524.00
2023-05-18T06:34:32.961Z,98530.00
2023-05-18T06:37:00.180Z,98518.00
2023-05-18T06:39:26.422Z,98525.00
2023-05-18T06:41:52.653Z,98529.00
2023-05-18T06:44:22.976Z,98540.00
2023-05-18T06:47:21.240Z,98541.00
2023-05-18T06:49:47.564Z,98525.00
2023-05-18T06:52:14.646Z,98514.00
2023-05-18T06:54:42.621Z,98524.00
2023-05-18T06:57:08.856Z,98516.00
2023-05-18T06:59:35.240Z,98529.00
2023-05-18T07:02:01.586Z,98528.00
2023-05-18T07:04:29.351Z,98524.00
2023-05-18T07:06:55.592Z,98527.00
2023-05-18T07:09:23.047Z,98528.00
2023-05-18T07:11:49.284Z,98531.00
2023-05-18T07:14:15.502Z,98526.00
2023-05-18T07:16:43.659Z,98524.00
2023-05-18T07:19:10.165Z,98534.00
2023-05-18T07:21:36.837Z,98536.00
2023-05-18T07:24:03.114Z,98516.00
2023-05-18T07:26:29.281Z,98508.00
2023-05-18T07:28:55.469Z,98513.00
2023-05-18T07:31:22.133Z,98505.00
2023-05-18T07:33:48.603Z,98521.00
2023-05-18T07:36:15.385Z,98512.00
2023-05-18T07:38:42.237Z,98524.00
2023-05-18T07:41:08.580Z,98518.00
2023-05-18T07:43:35.651Z,98512.00
2023-05-18T07:46:01.915Z,98504.00
2023-05-18T07:48:28.373Z,98514.00
2023-05-18T07:50:54.758Z,98510.00
2023-05-18T07:53:21.030Z,98499.00
2023-05-18T07:55:47.260Z,98489.00
2023-05-18T07:58:13.975Z,98509.00
2023-05-18T08:00:40.354Z,98499.00
2023-05-18T08:03:07.085Z,98507.00
2023-05-18T08:05:34.212Z,98514.00
2023-05-18T08:08:02.973Z,98499.00
2023-05-18T08:10:30.273Z,98510.00
2023-05-18T08:12:56.487Z,98508.00
2023-05-18T08:15:22.855Z,98500.00
2023-05-18T08:17:49.152Z,98509.00
2023-05-18T08:20:16.466Z,98476.00
2023-05-18T08:22:43.582Z,98496.00
2023-05-18T08:25:09.952Z,98487.00
2023-05-18T08:27:36.406Z,98491.00
2023-05-18T08:30:02.733Z,98490.00
2023-05-18T08:32:29.022Z,98482.00
2023-05-18T08:34:55.288Z,98472.00
2023-05-18T08:37:21.525Z,98484.00
2023-05-18T08:39:47.720Z,98470.00
2023-05-18T08:42:24.493Z,98482.00
2023-05-18T08:45:27.916Z,98471.00
2023-05-18T08:48:00.507Z,98481.00
2023-05-18T08:50:31.560Z,98480.00
2023-05-18T08:53:04.085Z,98454.00
2023-05-18T08:55:36.438Z,98435.00
2023-05-18T08:58:08.772Z,98451.00
2023-05-18T09:00:36.934Z,98439.00
2023-05-18T09:03:05.409Z,98464.00
2023-05-18T09:05:33.095Z,98458.00
2023-05-18T09:08:00.495Z,98490.00
2023-05-18T09:10:28.905Z,98471.00
2023-05-18T09:12:57.168Z,98471.00
2023-05-18T09:15:25.617Z,98471.00
2023-05-18T09:17:55.038Z,98473.00
2023-05-18T09:20:21.809Z,98447.00
2023-05-18T09:22:50.644Z,98460.00
2023-05-18T09:25:18.079Z,98474.00
2023-05-18T09:27:45.444Z,98469.00
2023-05-18T09:30:12.334Z,98467.00
2023-05-18T09:32:38.826Z,98470.00
2023-05-18T09:35:07.479Z,98471.00
2023-05-18T09:37:34.491Z,98468.00
2023-05-18T09:40:05.828Z,98470.00
2023-05-18T09:42:37.176Z,98462.00
2023-05-18T09:45:18.576Z,98456.00
2023-05-18T09:47:46.107Z,98463.00
2023-05-18T09:50:12.622Z,98461.00
2023-05-18T09:52:43.623Z,98472.00
2023-05-18T09:55:11.344Z,98469.00
2023-05-18T09:57:48.972Z,98464.00
2023-05-18T10:00:18.405Z,98461.00
2023-05-18T10:02:51.639Z,98456.00
2023-05-18T10:05:26.974Z,98450.00
2023-05-18T10:07:54.782Z,98456.00
2023-05-18T10:10:24.702Z,98457.00
2023-05-18T10:12:52.417Z,98447.00
2023-05-18T10:15:22.340Z,98439.00
2023-05-18T10:17:50.425Z,98445.00
2023-05-18T10:20:23.677Z,98446.00
2023-05-18T10:22:51.687Z,98435.00
2023-05-18T10:25:26.641Z,98443.00
2023-05-18T10:27:59.681Z,98432.00
2023-05-18T10:30:26.873Z,98428.00
2023-05-18T10:32:56.446Z,98421.00
2023-05-18T10:35:27.515Z,98437.00
2023-05-18T10:37:56.960Z,98445.00
2023-05-18T10:40:25.065Z,98424.00
2023-05-18T10:42:52.756Z,98427.00
2023-05-18T10:45:19.706Z,98429.00
2023-05-18T10:47:47.866Z,98434.00
2023-05-18T10:50:16.108Z,98438.00
2023-05-18T10:52:46.527Z,98431.00
2023-05-18T10:55:13.833Z,98401.00
2023-05-18T10:57:47.237Z,98424.00
2023-05-18T11:00:14.106Z,98425.00
2023-05-18T11:02:42.513Z,98427.00
2023-05-18T11:05:10.981Z,98420.00
2023-05-18T11:07:38.351Z,98399.00
2023-05-18T11:10:10.139Z,98411.00
2023-05-18T11:12:42.974Z,98374.00
2023-05-18T11:15:09.693Z,98397.00
2023-05-18T11:17:36.168Z,98408.00
2023-05-18T11:20:12.305Z,98407.00
2023-05-18T11:22:57.042Z,98414.00
2023-05-18T11:25:38.895Z,98411.00
2023-05-18T11:28:12.545Z,98412.00
2023-05-18T11:30:41.413Z,98400.00
2023-05-18T11:33:11.627Z,98399.00
2023-05-18T11:36:10.816Z,98408.00
2023-05-18T11:38:54.647Z,98407.00
2023-05-18T11:41:41.831Z,98387.00
2023-05-18T11:44:11.197Z,98401.00
2023-05-18T11:46:58.637Z,98391.00
2023-05-18T11:49:29.329Z,98381.00
2023-05-18T11:52:32.287Z,98387.00
2023-05-18T11:55:00.312Z,98381.00
2023-05-18T11:57:33.155Z,98384.00
2023-05-18T12:00:02.514Z,98379.00
2023-05-18T12:02:42.545Z,98388.00
2023-05-18T12:05:10.067Z,98375.00
2023-05-18T12:07:38.409Z,98372.00
2023-05-18T12:10:12.263Z,98366.00
2023-05-18T12:12:39.299Z,98370.00
2023-05-18T12:15:09.029Z,98364.00
2023-05-18T12:17:50.478Z,98373.00
2023-05-18T12:20:20.573Z,98367.00
2023-05-18T12:22:51.322Z,98358.00
2023-05-18T12:25:18.984Z,98358.00
2023-05-18T12:27:49.699Z,98376.00
2023-05-18T12:30:21.869Z,98362.00
2023-05-18T12:32:57.134Z,98342.00
2023-05-18T12:35:28.161Z,98348.00
2023-05-18T12:38:00.117Z,98352.00
2023-05-18T12:40:28.056Z,98354.00
2023-05-18T12:42:56.585Z,98345.00
2023-05-18T12:45:26.211Z,98344.00
2023-05-18T12:47:53.879Z,98350.00
2023-05-18T12:50:22.765Z,98354.00
2023-05-18T12:52:49.694Z,98336.00
2023-05-18T12:55:22.242Z,98345.00
2023-05-18T12:58:17.559Z,98347.00
2023-05-18T13:00:46.867Z,98338.00
2023-05-18T13:03:19.709Z,98345.00
2023-05-18T13:06:02.561Z,98343.00
2023-05-18T13:08:31.240Z,98336.00
2023-05-18T13:11:13.692Z,98345.00
2023-05-18T13:14:08.215Z,98349.00
2023-05-18T13:16:38.970Z,98329.00
2023-05-18T13:19:08.686Z,98323.00
2023-05-18T13:21:35.974Z,98333.00
2023-05-18T13:24:04.072Z,98324.00
2023-05-18T13:26:30.489Z,98306.00
2023-05-18T13:28:59.478Z,98319.00
2023-05-18T13:31:26.410Z,98320.00
2023-05-18T13:33:52.765Z,98315.00
2023-05-18T13:36:19.102Z,98321.00
2023-05-18T13:38:45.658Z,98321.00
2023-05-18T13:41:14.318Z,98302.00
2023-05-18T13:43:41.850Z,98317.00
2023-05-18T13:46:08.063Z,98316.00
2023-05-18T13:48:36.555Z,98303.00
2023-05-18T13:51:02.934Z,98299.00
2023-05-18T13:53:29.221Z,98303.00
2023-05-18T13:55:55.452Z,98301.00
2023-05-18T13:58:23.046Z,98282.00
2023-05-18T14:00:49.314Z,98290.00
2023-05-18T14:03:17.115Z,98274.00
2023-05-18T14:05:43.822Z,98271.00
2023-05-18T14:08:10.267Z,98282.00
2023-05-18T14:10:36.509Z,98283.00
2023-05-18T14:13:03.111Z,98295.00
2023-05-18T14:15:34.728Z,98299.00
2023-05-18T14:18:01.024Z,98296.00
2023-05-18T14:20:28.491Z,98278.00
2023-05-18T14:22:55.458Z,98286.00
2023-05-18T14:25:21.694Z,98273.00
2023-05-18T14:27:47.949Z,98282.00
2023-05-18T14:30:14.139Z,98288.00
2023-05-18T14:32:40.385Z,98286.00
2023-05-18T14:35:07.350Z,98272.00
2023-05-18T14:37:33.574Z,98279.00
2023-05-18T14:39:59.821Z,98274.00
2023-05-18T14:42:26.131Z,98282.00
2023-05-18T14:44:52.325Z,98281.00
2023-05-18T14:47:18.492Z,98281.00
2023-05-18T14:49:44.767Z,98267.00
2023-05-18T14:52:11.067Z,98281.00
2023-05-18T14:54:37.268Z,98274.00
2023-05-18T14:57:03.985Z,98283.00
2023-05-18T14:59:30.378Z,98279.00
2023-05-18T15:01:56.607Z,98267.00
2023-05-18T15:04:24.172Z,98266.00
2023-05-18T15:06:50.408Z,98265.00
2023-05-18T15:09:16.693Z,98271.00
2023-05-18T15:11:43.212Z,98266.00
2023-05-18T15:14:09.527Z,98266.00
2023-05-18T15:16:35.759Z,98268.00
2023-05-18T15:19:03.623Z,98255.00
2023-05-18T15:21:30.083Z,98265.00
2023-05-18T15:23:56.294Z,98253.00
2023-05-18T15:26:22.428Z,98270.00
2023-05-18T15:28:48.668Z,98264.00
2023-05-18T15:31:15.056Z,98268.00
2023-05-18T15:33:42.777Z,98270.00
2023-05-18T15:36:09.404Z,98268.00
2023-05-18T15:38:35.562Z,98272.00
2023-05-18T15:41:01.802Z,98278.00
2023-05-18T15:43:29.656Z,98260.00
2023-05-18T15:45:56.804Z,98268.00
2023-05-18T15:48:23.041Z,98257.00
2023-05-18T15:50:49.457Z,98264.00
2023-05-18T15:53:15.609Z,98256.00
2023-05-18T15:55:41.805Z,98274.00
2023-05-18T15:58:07.980Z,98253.00
2023-05-18T16:00:34.600Z,98248.00
2023-05-18T16:03:00.939Z,98263.00
2023-05-18T16:05:27.146Z,98258.00
2023-05-18T16:07:53.332Z,98265.00
2023-05-18T16:10:19.477Z,98248.00
2023-05-18T16:12:45.862Z,98257.00
2023-05-18T16:15:12.057Z,98253.00
2023-05-18T16:17:38.239Z,98253.00
2023-05-18T16:20:05.120Z,98237.00
2023-05-18T16:22:31.350Z,98252.00
2023-05-18T16:24:58.118Z,98251.00
2023-05-18T16:27:24.278Z,98241.00
2023-05-18T16:29:51.014Z,98249.00
2023-05-18T16:32:18.288Z,98253.00
2023-05-18T16:34:44.464Z,98253.00
2023-05-18T16:37:10.654Z,98255.00
2023-05-18T16:39:36.795Z,98258.00
2023-05-18T16:42:03.195Z,98265.00
2023-05-18T16:44:29.370Z,98274.00
2023-05-18T16:46:55.657Z,98263.00
2023-05-18T16:49:21.960Z,98271.00
2023-05-18T16:51:48.125Z,98258.00
2023-05-18T16:54:14.283Z,98263.00
2023-05-18T16:56:40.456Z,98252.00
2023-05-18T16:59:06.894Z,98265.00
2023-05-18T17:01:33.232Z,98259.00
2023-05-18T17:03:59.609Z,98254.00
2023-05-18T17:06:26.033Z,98255.00
2023-05-18T17:08:56.745Z,98260.00
2023-05-18T17:11:25.346Z,98257.00
2023-05-18T17:13:52.083Z,98264.00
2023-05-18T17:16:20.684Z,98260.00
2023-05-18T17:18:47.876Z,98270.00
2023-05-18T17:21:14.353Z,98270.00
2023-05-18T17:23:40.835Z,98271.00
2023-05-18T17:26:07.054Z,98265.00
2023-05-18T17:28:33.244Z,98269.00
2023-05-18T17:30:59.476Z,98272.00
2023-05-18T17:33:25.648Z,98263.00
2023-05-18T17:35:52.271Z,98261.00
2023-05-18T17:38:20.831Z,98259.00
2023-05-18T17:40:46.992Z,98272.00
2023-05-18T17:43:13.128Z,98262.00
2023-05-18T17:45:39.614Z,98270.00
2023-05-18T17:48:05.902Z,98264.00
2023-05-18T17:50:32.409Z,98272.00
2023-05-18T17:52:58.731Z,98269.00
2023-05-18T17:55:24.913Z,98267.00
2023-05-18T17:57:51.084Z,98268.00
2023-05-18T18:00:17.850Z,98281.00
2023-05-18T18:02:44.275Z,98280.00
2023-05-18T18:05:10.980Z,98281.00
2023-05-18T18:07:38.267Z,98270.00
2023-05-18T18:10:06.276Z,98270.00
2023-05-18T18:12:32.463Z,98271.00
2023-05-18T18:14:58.639Z,98270.00
2023-05-18T18:17:25.002Z,98271.00
2023-05-18T18:19:51.248Z,98278.00
2023-05-18T18:22:17.423Z,98286.00
2023-05-18T18:24:43.583Z,98279.00
2023-05-18T18:27:10.079Z,98290.00
2023-05-18T18:29:36.263Z,98288.00
2023-05-18T18:32:02.599Z,98281.00
2023-05-18T18:34:29.070Z,98294.00
2023-05-18T18:36:55.995Z,98293.00
2023-05-18T18:39:22.175Z,98295.00
2023-05-18T18:41:48.340Z,98294.00
2023-05-18T18:44:14.635Z,98295.00
2023-05-18T18:46:40.914Z,98306.00
2023-05-18T18:49:07.153Z,98303.00
2023-05-18T18:51:33.394Z,98306.00
2023-05-18T18:53:59.894Z,98304.00
2023-05-18T18:56:26.669Z,98305.00
2023-05-18T18:58:53.067Z,98307.00
2023-05-18T19:01:19.281Z,98316.00
2023-05-18T19:03:45.504Z,98304.00
2023-05-18T19:06:14.022Z,98301.00
2023-05-18T19:08:40.809Z,98318.00
2023-05-18T19:11:06.974Z,98333.00
2023-05-18T19:13:33.181Z,98324.00
2023-05-18T19:15:59.682Z,98325.00
2023-05-18T19:18:25.854Z,98333.00
2023-05-18T19:20:52.044Z,98332.00
2023-05-18T19:23:18.217Z,98340.00
2023-05-18T19:25:44.664Z,98341.00
2023-05-18T19:28:11.066Z,98348.00
2023-05-18T19:30:37.386Z,98342.00
2023-05-18T19:33:03.600Z,98357.00
2023-05-18T19:35:31.761Z,98362.00
2023-05-18T19:37:59.000Z,98354.00
2023-05-18T19:40:26.663Z,98367.00
2023-05-18T19:42:53.088Z,98355.00
2023-05-18T19:45:19.260Z,98357.00
2023-05-18T19:47:45.653Z,98363.00
2023-05-18T19:50:11.904Z,98359.00
2023-05-18T19:52:38.067Z,98370.00
2023-05-18T19:55:04.878Z,98370.00
2023-05-18T19:57:32.283Z,98368.00
2023-05-18T19:59:58.481Z,98365.00
2023-05-18T20:02:25.146Z,98387.00
2023-05-18T20:04:52.990Z,98388.00
2023-05-18T20:07:19.774Z,98384.00
2023-05-18T20:09:46.386Z,98393.00
2023-05-18T20:12:12.818Z,98382.00
2023-05-18T20:14:38.976Z,98386.00
2023-05-18T20:17:05.969Z,98379.00
2023-05-18T20:19:32.541Z,98383.00
2023-05-18T20:21:58.767Z,98388.00
2023-05-18T20:24:24.901Z,98405.00
2023-05-18T20:26:52.366Z,98398.00
2023-05-18T20:29:18.535Z,98397.00
2023-05-18T20:31:44.811Z,98396.00
2023-05-18T20:34:11.111Z,98402.00
2023-05-18T20:36:37.302Z,98399.00
2023-05-18T20:39:03.537Z,98403.00
2023-05-18T20:41:29.722Z,98407.00
2023-05-18T20:43:56.648Z,98406.00
2023-05-18T20:46:24.207Z,98414.00
2023-05-18T20:48:54.194Z,98412.00
2023-05-18T20:51:22.768Z,98413.00
2023-05-18T20:53:49.150Z,98422.00
2023-05-18T20:56:15.533Z,98417.00
2023-05-18T20:58:47.703Z,98422.00
2023-05-18T21:01:15.326Z,98420.00
2023-05-18T21:03:45.493Z,98418.00
2023-05-18T21:06:14.484Z,98431.00
2023-05-18T21:08:40.710Z,98422.00
2023-05-18T21:11:06.883Z,98425.00
2023-05-18T21:13:36.141Z,98425.00
2023-05-18T21:16:05.620Z,98425.00
2023-05-18T21:18:33.470Z,98426.00
2023-05-18T21:21:00.349Z,98435.00
2023-05-18T21:23:26.750Z,98439.00
2023-05-18T21:25:53.533Z,98423.00
2023-05-18T21:28:19.913Z,98428.00
2023-05-18T21:30:46.092Z,98434.00
2023-05-18T21:33:12.725Z,98447.00
2023-05-18T21:35:39.188Z,98446.00
2023-05-18T21:38:05.388Z,98444.00
2023-05-18T21:40:31.791Z,98435.00
2023-05-18T21:42:58.169Z,98439.00
2023-05-18T21:45:24.713Z,98442.00
2023-05-18T21:47:51.272Z,98440.00
2023-05-18T21:50:17.597Z,98447.00
2023-05-18T21:52:43.765Z,98436.00
2023-05-18T21:55:10.506Z,98454.00
2023-05-18T21:57:36.672Z,98433.00
2023-05-18T22:00:05.429Z,98439.00
2023-05-18T22:02:39.562Z,98440.00
2023-05-18T22:05:06.050Z,98445.00
2023-05-18T22:07:32.216Z,98440.00
2023-05-18T22:09:58.375Z,98437.00
2023-05-18T22:12:24.601Z,98436.00
2023-05-18T22:14:50.781Z,98451.00
2023-05-18T22:17:20.946Z,98451.00
2023-05-18T22:19:48.190Z,98442.00
2023-05-18T22:22:26.599Z,98443.00
2023-05-18T22:24:56.461Z,98447.00
2023-05-18T22:27:22.633Z,98436.00
2023-05-18T22:29:48.785Z,98442.00
2023-05-18T22:32:17.127Z,98435.00
2023-05-18T22:34:43.312Z,98436.00
2023-05-18T22:37:09.542Z,98438.00
2023-05-18T22:39:35.703Z,98433.00
2023-05-18T22:42:01.863Z,98428.00
2023-05-18T22:44:28.025Z,98428.00
2023-05-18T22:46:54.314Z,98420.00
2023-05-18T22:49:20.492Z,98424.00
2023-05-18T22:51:46.703Z,98415.00
2023-05-18T22:54:12.865Z,98432.00
2023-05-18T22:56:39.055Z,98432.00
2023-05-18T22:59:06.352Z,98425.00
2023-05-18T23:01:32.571Z,98427.00
2023-05-18T23:03:59.719Z,98427.00
2023-05-18T23:06:25.935Z,98418.00
2023-05-18T23:08:52.499Z,98429.00
2023-05-18T23:11:19.129Z,98423.00
2023-05-18T23:13:45.503Z,98414.00
2023-05-18T23:16:11.919Z,98420.00
2023-05-18T23:18:38.164Z,98421.00
2023-05-18T23:21:04.511Z,98421.00
2023-05-18T23:23:30.680Z,98424.00
2023-05-18T23:25:56.878Z,98422.00
2023-05-18T23:28:23.031Z,98416.00
2023-05-18T23:30:49.419Z,98420.00
2023-05-18T23:33:15.909Z,98422.00
2023-05-18T23:35:46.027Z,98407.00
2023-05-18T23:38:19.027Z,98399.00
2023-05-18T23:40:47.264Z,98414.00
2023-05-18T23:43:14.509Z,98409.00
2023-05-18T23:45:41.252Z,98410.00
2023-05-18T23:48:08.321Z,98413.00
2023-05-18T23:50:35.090Z,98408.00
2023-05-18T23:53:03.841Z,98415.00
2023-05-18T23:55:34.170Z,98413.00
2023-05-18T23:58:01.872Z,98408.00
